Time;durP1;ratioP1;P1;durP2;ratioP2;P2;SDS_P1;SDS_P2;PMS_P1;PMS_P2;Temp;Humidity;BMP_temperature;BMP_pressure;BME280_temperature;BME280_humidity;BME280_pressure;Samples;Min_cycle;Max_cycle;Signal;HPM_P1;HPM_P2
2023/06/15 00:01:27;;;;;;;2.20;2.10;;;23.60;99.90;;;24.09;44.67;101746.91;4938395;29;20044;-64
2023/06/15 00:03:55;;;;;;;2.35;2.25;;;23.60;99.90;;;24.06;45.05;101752.47;4938415;29;20079;-64
2023/06/15 00:06:24;;;;;;;2.47;2.38;;;23.60;99.90;;;24.05;44.84;101756.09;4935012;29;20048;-64
2023/06/15 00:08:53;;;;;;;2.10;2.00;;;23.60;99.90;;;24.02;45.04;101746.31;4938267;29;20052;-64
2023/06/15 00:11:22;;;;;;;2.15;2.05;;;23.50;99.90;;;23.99;45.06;101746.44;4938163;29;20075;-64
2023/06/15 00:13:51;;;;;;;2.25;2.15;;;23.50;99.90;;;24.02;45.29;101753.56;4938185;29;20497;-64
2023/06/15 00:16:19;;;;;;;2.42;2.33;;;23.50;99.90;;;24.02;45.32;101750.84;4938104;29;20489;-64
2023/06/15 00:18:48;;;;;;;2.13;2.03;;;23.50;99.90;;;24.02;45.30;101743.59;4936967;29;20043;-66
2023/06/15 00:21:17;;;;;;;2.00;1.90;;;23.50;99.90;;;23.96;45.35;101746.53;4938024;29;20079;-64
2023/06/15 00:23:46;;;;;;;2.20;2.10;;;23.50;99.90;;;23.94;45.33;101748.44;4938375;29;20051;-64
2023/06/15 00:26:14;;;;;;;2.20;2.10;;;23.50;99.90;;;23.92;45.44;101752.19;4938193;29;20545;-65
2023/06/15 00:28:47;;;;;;;2.10;2.00;;;23.40;99.90;;;23.91;45.88;101756.69;4933634;29;20075;-64
2023/06/15 00:31:17;;;;;;;2.42;2.33;;;23.40;99.90;;;23.82;45.73;101746.31;4936885;29;20075;-64
2023/06/15 00:33:46;;;;;;;2.42;2.33;;;23.30;99.90;;;23.81;46.49;101755.34;4936746;29;20106;-64
2023/06/15 00:36:14;;;;;;;2.35;2.25;;;23.30;99.90;;;23.74;46.25;101759.28;4937245;29;20139;-66
2023/06/15 00:38:42;;;;;;;2.65;2.55;;;23.20;99.90;;;23.71;46.49;101750.44;4936089;29;20051;-64
2023/06/15 00:41:11;;;;;;;2.65;2.55;;;23.20;99.90;;;23.72;46.62;101752.19;4937971;29;20952;-64
2023/06/15 00:43:40;;;;;;;2.10;2.00;;;23.20;99.90;;;23.65;46.73;101757.00;4937836;29;20051;-64
2023/06/15 00:46:10;;;;;;;2.50;2.40;;;23.20;99.90;;;23.66;46.84;101758.75;4937824;29;20103;-64
2023/06/15 00:48:38;;;;;;;2.53;2.42;;;23.20;99.90;;;23.65;46.93;101757.00;4917804;29;20080;-64
2023/06/15 00:51:08;;;;;;;2.33;2.22;;;23.20;99.90;;;23.57;46.89;101759.16;4937684;29;20051;-64
2023/06/15 00:53:37;;;;;;;2.60;2.50;;;23.10;99.90;;;23.55;47.47;101761.06;4936498;29;20060;-64
2023/06/15 00:56:07;;;;;;;2.08;1.98;;;23.10;99.90;;;23.48;47.96;101756.84;4936388;29;20505;-66
2023/06/15 00:58:36;;;;;;;2.58;2.47;;;23.10;99.90;;;23.49;48.05;101760.44;4928634;29;20379;-64
2023/06/15 01:01:04;;;;;;;2.33;2.22;;;23.00;99.90;;;23.45;48.04;101759.69;4937593;29;20047;-64
2023/06/15 01:03:35;;;;;;;2.17;2.08;;;23.00;99.90;;;23.44;48.20;101763.31;4937260;29;20120;-64
2023/06/15 01:06:12;;;;;;;;;;;23.00;99.90;;;23.40;48.54;101744.63;4937461;29;20044;-64
2023/06/15 01:08:42;;;;;;;2.33;2.22;;;23.00;99.90;;;23.33;48.33;101760.22;4934991;29;19954;-64
2023/06/15 01:11:14;;;;;;;2.35;2.25;;;22.90;99.90;;;23.28;48.80;101757.69;4937472;29;20421;-64
2023/06/15 01:13:45;;;;;;;2.42;2.33;;;22.80;99.90;;;23.29;49.21;101758.56;4937076;29;20051;-65
2023/06/15 01:16:23;;;;;;;2.72;2.63;;;22.80;99.90;;;23.09;49.34;101756.69;4937418;29;20114;-65
2023/06/15 01:18:57;;;;;;;2.80;2.70;;;22.70;99.90;;;23.06;49.76;101755.94;4925917;29;20058;-65
2023/06/15 01:21:28;;;;;;;2.20;2.10;;;22.60;99.90;;;22.99;50.06;101759.84;4935951;29;20067;-64
2023/06/15 01:24:17;;;;;;;3.22;3.03;;;22.60;99.90;;;22.94;50.58;101768.13;4937301;29;20151;-64
2023/06/15 01:26:52;;;;;;;2.55;2.45;;;22.50;99.90;;;22.88;50.65;101762.13;4935446;29;20485;-64
2023/06/15 01:29:22;;;;;;;2.42;2.33;;;22.50;99.90;;;22.90;51.15;101762.94;4937126;29;20122;-64
2023/06/15 01:31:52;;;;;;;2.58;2.47;;;22.50;99.90;;;22.83;51.27;101759.59;4916837;29;20047;-65
2023/06/15 01:34:20;;;;;;;2.30;2.20;;;22.40;99.90;;;22.90;51.23;101761.09;4936771;29;20405;-64
2023/06/15 01:36:50;;;;;;;2.22;2.13;;;22.50;99.90;;;22.87;51.44;101766.63;4937193;29;20134;-64
2023/06/15 01:39:18;;;;;;;2.88;2.78;;;22.50;99.90;;;22.77;51.83;101764.34;4936870;29;20079;-64
2023/06/15 01:41:48;;;;;;;2.53;2.42;;;22.40;99.90;;;22.76;52.01;101757.22;4936785;29;20462;-64
2023/06/15 01:44:17;;;;;;;2.30;2.20;;;22.40;99.90;;;22.71;52.34;101767.31;4937185;29;20138;-66
2023/06/15 01:46:47;;;;;;;5.07;4.78;;;22.30;99.90;;;22.64;52.20;101768.50;4935433;29;20098;-65
2023/06/15 01:49:18;;;;;;;2.40;2.30;;;22.20;99.90;;;22.55;52.72;101768.84;4936515;29;20378;-65
2023/06/15 01:51:47;;;;;;;3.00;2.90;;;22.10;99.90;;;22.57;52.99;101775.09;4935368;29;20469;-66
2023/06/15 01:54:15;;;;;;;2.28;2.17;;;22.10;99.90;;;22.56;53.41;101766.06;4935336;29;20070;-65
2023/06/15 01:56:44;;;;;;;2.70;2.60;;;22.10;99.90;;;22.58;53.36;101768.72;4935363;29;20043;-65
2023/06/15 01:59:14;;;;;;;2.75;2.65;;;22.10;99.90;;;22.64;53.25;101773.88;4935153;29;20520;-66
2023/06/15 02:01:42;;;;;;;2.73;2.63;;;22.20;99.90;;;22.58;53.33;101772.31;4935274;29;20052;-64
2023/06/15 02:04:11;;;;;;;2.92;2.83;;;22.20;99.90;;;22.59;53.38;101776.75;4936417;29;20047;-64
2023/06/15 02:06:39;;;;;;;2.28;2.17;;;22.20;99.90;;;22.59;53.65;101770.50;4936326;29;20056;-65
2023/06/15 02:09:07;;;;;;;2.55;2.45;;;22.20;99.90;;;22.59;53.81;101773.22;4936369;29;20067;-64
2023/06/15 02:11:36;;;;;;;2.60;2.50;;;22.10;99.90;;;22.57;54.01;101772.38;4924008;29;20490;-64
2023/06/15 02:14:05;;;;;;;2.58;2.47;;;22.10;99.90;;;22.53;53.96;101771.56;4950892;29;20047;-64
2023/06/15 02:16:35;;;;;;;2.40;2.30;;;22.10;99.90;;;22.53;54.34;101771.56;4931176;29;20118;-64
2023/06/15 02:19:04;;;;;;;2.50;2.40;;;22.00;99.90;;;22.50;54.44;101771.69;4935930;29;20086;-64
2023/06/15 02:21:33;;;;;;;2.30;2.20;;;22.10;99.90;;;22.49;54.41;101772.66;4935892;29;20142;-64
2023/06/15 02:24:01;;;;;;;2.55;2.45;;;22.00;99.90;;;22.50;54.49;101778.91;4936187;29;20115;-64
2023/06/15 02:26:30;;;;;;;2.83;2.63;;;22.00;99.90;;;22.51;54.32;101780.69;4935787;29;20112;-65
2023/06/15 02:28:59;;;;;;;2.63;2.53;;;22.00;99.90;;;22.01;54.47;101705.31;4935961;29;20102;-64
2023/06/15 02:31:28;;;;;;;2.40;2.30;;;22.00;99.90;;;22.43;55.09;101779.13;4927059;29;20111;-64
2023/06/15 02:33:58;;;;;;;2.28;2.17;;;22.00;99.90;;;22.45;54.55;101785.34;4931573;29;20052;-64
2023/06/15 02:36:28;;;;;;;2.55;2.45;;;22.00;99.90;;;22.44;54.97;101774.63;4944051;29;20099;-64
2023/06/15 02:38:57;;;;;;;2.40;2.30;;;21.90;99.90;;;22.43;55.06;101781.84;4934573;29;20043;-64
2023/06/15 02:41:25;;;;;;;2.72;2.63;;;21.90;99.90;;;22.41;55.30;101778.31;4934580;29;20082;-64
2023/06/15 02:43:54;;;;;;;2.70;2.60;;;21.90;99.90;;;22.39;55.12;101782.94;4934504;29;20508;-64
2023/06/15 02:46:23;;;;;;;2.28;2.17;;;21.90;99.90;;;22.38;55.12;101781.16;4934201;29;20075;-64
2023/06/15 02:48:52;;;;;;;2.45;2.35;;;21.90;99.90;;;22.36;55.18;101774.03;4934464;29;20059;-66
2023/06/15 02:51:24;;;;;;;2.60;2.50;;;21.90;99.90;;;22.35;55.42;101783.97;4935813;29;20098;-64
2023/06/15 02:53:52;;;;;;;2.70;2.60;;;21.90;99.90;;;22.32;55.43;101783.19;4935759;29;20135;-64
2023/06/15 02:56:22;;;;;;;2.65;2.55;;;21.90;99.90;;;22.23;55.79;101789.84;4930814;29;20417;-64
2023/06/15 02:58:53;;;;;;;2.45;2.35;;;21.80;99.90;;;22.30;55.97;101774.28;4934308;29;20580;-64
2023/06/15 03:01:55;;;;;;;2.45;2.35;;;21.90;99.90;;;22.27;56.01;101782.50;4923844;29;20055;-64
2023/06/15 03:04:24;;;;;;;2.50;2.40;;;21.80;99.90;;;22.19;56.05;101782.78;4935653;29;20106;-64
2023/06/15 03:06:58;;;;;;;2.50;2.40;;;21.70;99.90;;;22.20;56.11;101779.16;4931236;29;20052;-64
2023/06/15 03:09:48;;;;;;;2.60;2.50;;;21.80;99.90;;;22.15;56.02;101775.75;4948491;29;20044;-64
2023/06/15 03:12:17;;;;;;;2.47;2.37;;;21.80;99.90;;;22.22;56.33;101782.66;4935579;29;20060;-64
2023/06/15 03:14:50;;;;;;;2.38;2.28;;;21.80;99.90;;;22.10;56.33;101760.69;4942030;28;20351;-64
2023/06/15 03:17:21;;;;;;;2.47;2.38;;;21.80;99.90;;;22.05;56.56;101763.56;4916299;29;20080;-65
2023/06/15 03:19:50;;;;;;;2.60;2.50;;;21.70;99.90;;;22.17;56.82;101789.16;4934157;29;20055;-64
2023/06/15 03:22:20;;;;;;;2.38;2.28;;;21.70;99.90;;;22.19;56.67;101790.88;4935090;29;20044;-64
2023/06/15 03:24:50;;;;;;;2.45;2.35;;;21.70;99.90;;;22.15;56.71;101786.53;4934213;29;20079;-65
2023/06/15 03:27:18;;;;;;;2.40;2.30;;;21.70;99.90;;;22.10;57.00;101795.75;4933737;29;20052;-64
2023/06/15 03:29:49;;;;;;;2.50;2.40;;;21.60;99.90;;;22.06;57.14;101783.31;4938421;29;20040;-64
2023/06/15 03:32:18;;;;;;;2.35;2.25;;;21.60;99.90;;;22.07;57.25;101785.94;4926764;29;20048;-64
2023/06/15 03:34:46;;;;;;;2.45;2.35;;;21.60;99.90;;;22.08;57.40;101790.41;4939129;29;20043;-64
2023/06/15 03:37:15;;;;;;;2.65;2.55;;;21.70;99.90;;;22.12;57.49;101791.16;4937818;29;20047;-65
2023/06/15 03:39:47;;;;;;;2.53;2.42;;;21.70;99.90;;;22.12;57.55;101789.38;4937834;29;20135;-65
2023/06/15 03:42:15;;;;;;;2.43;2.33;;;21.60;99.90;;;22.09;57.81;101791.25;4939047;29;20058;-64
2023/06/15 03:44:44;;;;;;;2.42;2.33;;;21.60;99.90;;;22.06;57.54;101794.97;4937670;29;20134;-65
2023/06/15 03:47:13;;;;;;;2.00;1.90;;;21.60;99.90;;;22.07;57.70;101798.53;4937659;29;20405;-65
2023/06/15 03:49:41;;;;;;;2.53;2.42;;;21.60;99.90;;;22.01;57.61;101799.63;4945755;29;20047;-65
2023/06/15 03:52:11;;;;;;;2.85;2.75;;;21.50;99.90;;;22.00;57.99;101800.59;4937196;29;20083;-65
2023/06/15 03:54:40;;;;;;;2.63;2.53;;;21.50;99.90;;;21.99;57.95;101796.13;4935394;29;20053;-64
2023/06/15 03:57:11;;;;;;;2.63;2.53;;;21.50;99.90;;;21.99;58.08;101798.81;4937443;29;20062;-65
2023/06/15 03:59:41;;;;;;;2.30;2.20;;;21.50;99.90;;;21.94;58.32;101792.72;4929725;29;20052;-63
2023/06/15 04:02:09;;;;;;;2.47;2.38;;;21.50;99.90;;;21.97;58.41;101792.59;4937372;29;20071;-64
2023/06/15 04:04:40;;;;;;;2.10;2.00;;;21.50;99.90;;;22.05;57.97;101798.59;4937390;29;20058;-64
2023/06/15 04:07:08;;;;;;;2.30;2.20;;;21.50;99.90;;;21.97;58.22;101791.75;4938648;29;20046;-64
2023/06/15 04:09:37;;;;;;;3.10;3.00;;;21.50;99.90;;;22.07;58.12;101799.41;4926248;29;20055;-64
2023/06/15 04:12:06;;;;;;;2.60;2.50;;;21.60;99.90;;;22.05;58.41;101798.59;4946321;29;20055;-65
2023/06/15 04:14:37;;;;;;;2.47;2.38;;;21.50;99.90;;;22.09;58.45;101802.03;4936912;29;20051;-64
2023/06/15 04:17:06;;;;;;;2.40;2.30;;;21.60;99.90;;;22.11;58.27;101801.06;4937141;29;20056;-64
2023/06/15 04:19:35;;;;;;;2.53;2.42;;;21.60;99.90;;;22.13;58.42;101809.97;4937030;29;20059;-64
2023/06/15 04:22:05;;;;;;;2.65;2.55;;;21.70;99.90;;;22.12;58.51;101808.22;4938143;29;20066;-66
2023/06/15 04:24:33;;;;;;;2.50;2.40;;;21.60;99.90;;;22.12;58.60;101807.34;4937014;29;20078;-64
2023/06/15 04:27:02;;;;;;;2.20;2.10;;;21.60;99.90;;;22.14;58.43;101809.03;4929279;29;20051;-64
2023/06/15 04:29:31;;;;;;;2.60;2.50;;;21.70;99.90;;;22.16;58.33;101811.69;4936918;29;20382;-64
2023/06/15 04:32:03;;;;;;;2.63;2.53;;;21.70;99.90;;;22.15;58.80;101812.59;4933130;29;20064;-65
2023/06/15 04:34:34;;;;;;;2.92;2.83;;;21.70;99.90;;;22.17;58.56;101816.13;4932070;29;20458;-64
2023/06/15 04:37:06;;;;;;;2.33;2.22;;;21.70;99.90;;;22.22;58.59;101816.84;4936786;29;20107;-64
2023/06/15 04:39:37;;;;;;;2.40;2.30;;;21.70;99.90;;;22.16;58.86;101815.22;4944392;28;20044;-66
2023/06/15 04:42:08;;;;;;;2.25;2.15;;;21.70;99.90;;;22.12;58.62;101813.63;4936398;29;20052;-67
2023/06/15 04:44:37;;;;;;;2.40;2.30;;;21.70;99.90;;;22.17;58.86;101816.13;4933015;29;20442;-64
2023/06/15 04:47:08;;;;;;;2.42;2.33;;;21.70;99.90;;;22.20;59.28;101822.28;4933142;29;20107;-64
2023/06/15 04:49:36;;;;;;;;;;;21.80;99.90;;;22.24;59.07;101823.06;4937021;29;20505;-64
2023/06/15 04:52:06;;;;;;;2.30;2.20;;;21.70;99.90;;;22.31;58.84;101821.88;4937822;29;19923;-64
2023/06/15 04:54:39;;;;;;;2.10;2.00;;;21.80;99.90;;;22.32;59.04;101826.31;4944827;29;20451;-64
2023/06/15 04:57:08;;;;;;;2.35;2.25;;;21.80;99.90;;;22.36;59.08;101833.38;4937652;29;20042;-64
2023/06/15 04:59:39;;;;;;;2.47;2.37;;;21.90;99.90;;;22.22;58.99;101809.63;4944607;29;20126;-64
2023/06/15 05:02:10;;;;;;;2.65;2.55;;;21.80;99.90;;;22.35;59.20;101831.63;4933458;29;20304;-64
2023/06/15 05:04:40;;;;;;;2.40;2.30;;;21.90;99.90;;;22.38;58.97;101836.88;4936078;29;20082;-64
2023/06/15 05:07:08;;;;;;;2.75;2.65;;;21.90;99.90;;;22.36;59.22;101830.66;4928330;29;20043;-64
2023/06/15 05:09:43;;;;;;;2.38;2.28;;;21.90;99.90;;;22.39;59.53;101836.84;4936290;29;20066;-65
2023/06/15 05:12:15;;;;;;;2.38;2.28;;;22.00;99.90;;;22.49;59.34;101836.50;4936144;29;20508;-64
2023/06/15 05:14:44;;;;;;;2.60;2.50;;;22.00;99.90;;;22.56;59.19;101833.50;4932354;29;20489;-66
2023/06/15 05:17:15;;;;;;;2.78;2.67;;;22.10;99.90;;;22.61;58.91;101841.47;4936016;29;20494;-64
2023/06/15 05:19:43;;;;;;;2.63;2.53;;;22.10;99.90;;;22.60;58.53;101837.00;4937464;29;20052;-64
2023/06/15 05:22:11;;;;;;;2.72;2.63;;;22.10;99.90;;;22.61;58.26;101836.06;4935616;29;20083;-64
2023/06/15 05:24:41;;;;;;;3.05;2.90;;;22.10;99.90;;;22.50;58.15;101840.94;4944187;29;20075;-64
2023/06/15 05:27:10;;;;;;;2.67;2.58;;;22.10;99.90;;;22.67;58.68;101835.81;4935471;29;20055;-64
2023/06/15 05:29:41;;;;;;;2.42;2.33;;;22.20;99.90;;;22.68;58.05;101835.78;4944149;28;20588;-64
2023/06/15 05:32:11;;;;;;;2.60;2.50;;;22.30;99.90;;;22.78;58.10;101841.69;4935464;29;20425;-64
2023/06/15 05:34:41;;;;;;;2.65;2.55;;;22.30;99.90;;;22.73;57.86;101838.25;4932065;29;20056;-67
2023/06/15 05:37:09;;;;;;;3.17;2.97;;;22.30;99.90;;;22.04;57.78;101764.50;4935754;29;20048;-65
2023/06/15 05:39:40;;;;;;;2.83;2.72;;;22.10;99.90;;;22.56;58.09;101822.72;4927697;29;20051;-64
2023/06/15 05:42:10;;;;;;;3.07;2.97;;;22.20;99.90;;;21.78;60.05;101760.94;4935663;29;20409;-64
2023/06/15 05:44:42;;;;;;;2.60;2.50;;;21.80;99.90;;;22.44;59.33;101837.53;4927967;29;20064;-64
2023/06/15 05:47:10;;;;;;;2.80;2.70;;;22.00;99.90;;;22.25;59.79;101840.97;4936756;29;20548;-64
2023/06/15 05:49:42;;;;;;;2.38;2.28;;;21.80;99.90;;;22.54;59.36;101851.56;4943380;29;20489;-66
2023/06/15 05:52:14;;;;;;;2.50;2.40;;;22.00;99.90;;;22.74;58.41;101848.13;4924434;29;20087;-64
2023/06/15 05:54:45;;;;;;;2.70;2.60;;;22.20;99.90;;;22.56;58.36;101816.44;4943353;29;20054;-64
2023/06/15 05:57:14;;;;;;;2.85;2.75;;;22.30;99.90;;;21.73;62.12;101847.34;4935301;29;20481;-64
2023/06/15 05:59:46;;;;;;;4.32;4.03;;;21.50;99.90;;;21.75;60.61;101831.13;4935960;29;20044;-66
2023/06/15 06:02:15;;;;;;;2.45;2.35;;;21.50;99.90;;;21.63;60.58;101807.28;4936229;29;20075;-64
2023/06/15 06:04:45;;;;;;;8.38;3.67;;;21.40;99.90;;;22.17;60.88;101848.47;4934897;29;20058;-64
2023/06/15 06:07:14;;;;;;;4.47;4.23;;;21.60;99.90;;;21.97;60.87;101841.09;4915973;29;20049;-65
2023/06/15 06:09:43;;;;;;;4.28;3.97;;;21.40;99.90;;;22.03;61.47;101846.28;4936342;29;20331;-64
2023/06/15 06:12:13;;;;;;;2.60;2.50;;;21.50;99.90;;;21.67;61.76;101846.66;4934970;29;20055;-64
2023/06/15 06:14:42;;;;;;;4.18;3.97;;;21.20;99.90;;;21.83;60.99;101850.63;4936173;29;20074;-66
2023/06/15 06:17:10;;;;;;;3.85;3.65;;;21.40;99.90;;;21.99;61.10;101860.78;4935893;29;20103;-64
2023/06/15 06:19:47;;;;;;;3.88;3.58;;;21.40;99.90;;;21.58;61.27;101857.75;4936136;29;20441;-64
2023/06/15 06:22:16;;;;;;;3.67;3.50;;;21.20;99.90;;;21.66;62.44;101851.16;4923513;29;20048;-64
2023/06/15 06:24:47;;;;;;;2.92;2.83;;;21.10;99.90;;;21.50;62.96;101852.63;4889508;29;20143;-64
2023/06/15 06:27:15;;;;;;;2.60;2.50;;;20.90;99.90;;;21.74;63.30;101854.47;4896857;29;20057;-64
2023/06/15 06:29:44;;;;;;;2.72;2.63;;;21.10;99.90;;;22.03;62.88;101850.78;4898392;29;20056;-65
2023/06/15 06:32:12;;;;;;;3.10;3.00;;;21.40;99.90;;;21.87;63.00;101849.59;4898038;29;20045;-64
2023/06/15 06:34:41;;;;;;;4.55;4.30;;;21.40;99.90;;;21.89;61.82;101847.72;4897693;29;20048;-64
2023/06/15 06:37:13;;;;;;;3.00;2.90;;;21.40;99.90;;;22.33;62.14;101852.38;4897862;29;20044;-64
2023/06/15 06:39:41;;;;;;;3.47;3.30;;;21.70;99.90;;;22.33;59.66;101855.97;4898093;29;20470;-64
2023/06/15 06:42:11;;;;;;;3.60;3.40;;;21.80;99.90;;;22.66;60.25;101855.63;4894436;29;20358;-64
2023/06/15 06:44:40;;;;;;;2.80;2.70;;;22.10;99.90;;;22.71;60.02;101857.22;4897711;29;20060;-66
2023/06/15 06:47:08;;;;;;;2.72;2.63;;;22.20;99.90;;;22.83;58.91;101855.84;4898157;29;20053;-64
2023/06/15 06:49:36;;;;;;;2.53;2.42;;;22.30;99.90;;;23.14;59.17;101859.09;4897678;29;20087;-63
2023/06/15 06:52:06;;;;;;;2.55;2.45;;;22.60;99.90;;;23.44;58.64;101847.06;4904490;29;20083;-70
2023/06/15 06:54:36;;;;;;;2.87;2.77;;;22.90;99.90;;;23.44;57.72;101855.16;4897587;29;20052;-70
2023/06/15 06:57:05;;;;;;;2.50;2.40;;;23.00;99.90;;;23.77;56.99;101867.25;4897529;29;20372;-70
2023/06/15 06:59:34;;;;;;;2.88;2.78;;;23.30;99.90;;;23.59;56.76;101859.94;4893383;29;20666;-70
2023/06/15 07:02:13;;;;;;;3.65;3.35;;;23.20;99.90;;;23.62;56.27;101843.59;4894727;29;20059;-71
2023/06/15 07:04:42;;;;;;;2.75;2.65;;;23.30;99.90;;;23.84;55.72;101859.75;4897269;29;20059;-70
2023/06/15 07:07:10;;;;;;;2.30;2.20;;;23.30;99.90;;;23.84;56.61;101857.94;4897346;29;20040;-70
2023/06/15 07:09:40;;;;;;;2.92;2.80;;;23.30;99.90;;;23.86;56.35;101864.16;4897331;29;20052;-71
2023/06/15 07:12:10;;;;;;;2.17;2.08;;;23.30;99.90;;;24.12;55.27;101869.31;4897297;29;20072;-70
2023/06/15 07:14:38;;;;;;;2.42;2.30;;;23.50;99.90;;;23.89;55.31;101866.72;4897504;29;20066;-70
2023/06/15 07:17:10;;;;;;;5.65;3.10;;;23.40;99.90;;;23.98;54.40;101874.41;4894255;29;20052;-70
2023/06/15 07:19:38;;;;;;;3.35;3.20;;;23.50;99.90;;;23.92;55.01;101868.41;4897250;29;20123;-70
2023/06/15 07:22:07;;;;;;;9.80;3.20;;;23.40;99.90;;;23.76;55.37;101868.19;4897170;29;20083;-70
2023/06/15 07:24:36;;;;;;;2.40;2.30;;;23.20;99.90;;;23.83;55.90;101868.78;4933918;29;20115;-70
2023/06/15 07:27:06;;;;;;;2.30;2.20;;;23.20;99.90;;;24.10;55.24;101868.50;4935530;29;20083;-71
2023/06/15 07:29:35;;;;;;;3.55;3.28;;;23.50;99.90;;;23.95;53.91;101870.97;4935169;29;20107;-71
2023/06/15 07:32:03;;;;;;;2.30;2.20;;;23.50;99.90;;;23.82;54.52;101876.06;4934884;29;20494;-72
2023/06/15 07:34:32;;;;;;;2.65;2.55;;;23.30;99.90;;;24.01;54.43;101871.59;4935233;29;20441;-70
2023/06/15 07:37:00;;;;;;;2.65;2.55;;;23.40;99.90;;;24.23;54.26;101873.38;4935238;29;20056;-72
2023/06/15 07:39:29;;;;;;;2.85;2.70;;;23.60;99.90;;;24.53;54.44;101874.69;4931842;29;20079;-70
2023/06/15 07:41:58;;;;;;;2.42;2.33;;;24.00;99.90;;;24.64;53.44;101872.38;4935133;29;20048;-70
2023/06/15 07:44:27;;;;;;;2.17;2.08;;;24.10;99.90;;;24.96;54.21;101879.88;4934885;29;20040;-71
2023/06/15 07:46:58;;;;;;;2.25;2.15;;;24.40;99.90;;;24.91;52.41;101881.94;4935571;29;20091;-70
2023/06/15 07:49:26;;;;;;;3.03;2.83;;;24.40;99.90;;;25.04;51.52;101878.56;4934889;29;20580;-70
2023/06/15 07:52:13;;;;;;;2.25;2.15;;;24.60;99.90;;;25.15;52.17;101882.56;4923646;29;20067;-70
2023/06/15 07:54:41;;;;;;;2.80;2.70;;;24.60;99.90;;;25.21;50.66;101882.28;4935062;29;20044;-68
2023/06/15 07:57:11;;;;;;;2.10;2.00;;;24.70;99.90;;;25.08;51.16;101878.41;4934931;29;20114;-71
2023/06/15 07:59:40;;;;;;;2.63;2.53;;;24.60;99.90;;;25.04;50.24;101878.56;4935114;29;20048;-72
2023/06/15 08:02:09;;;;;;;7.13;2.97;;;24.60;99.90;;;25.02;50.47;101879.59;4933762;29;20045;-65
2023/06/15 08:04:37;;;;;;;2.83;2.67;;;24.50;99.90;;;25.13;51.15;101879.06;4934821;29;20055;-69
2023/06/15 08:07:07;;;;;;;2.28;2.17;;;24.60;99.90;;;25.05;50.40;101879.44;4934671;29;20083;-71
2023/06/15 08:09:36;;;;;;;2.42;2.33;;;24.60;99.90;;;25.25;50.14;101878.47;4923145;29;20123;-72
2023/06/15 08:12:06;;;;;;;2.55;2.45;;;24.70;99.90;;;25.41;50.22;101885.81;4926041;29;20051;-63
2023/06/15 08:14:35;;;;;;;2.25;2.15;;;24.80;99.90;;;25.63;49.57;101875.63;4933721;29;20051;-65
2023/06/15 08:17:06;;;;;;;2.03;1.93;;;25.10;99.90;;;25.55;48.91;101883.25;4928844;29;20142;-65
2023/06/15 08:19:36;;;;;;;2.03;1.92;;;25.20;99.90;;;25.77;48.45;101883.06;4938175;29;20051;-65
2023/06/15 08:22:06;;;;;;;1.98;1.88;;;25.30;99.90;;;25.78;47.39;101885.69;4937975;29;20441;-65
2023/06/15 08:24:34;;;;;;;2.42;2.22;;;25.30;99.90;;;25.35;46.94;101882.47;4938390;29;20064;-65
2023/06/15 08:27:03;;;;;;;2.10;2.00;;;25.00;99.90;;;25.67;46.85;101885.38;4917630;29;20062;-65
2023/06/15 08:29:32;;;;;;;2.35;2.25;;;25.10;99.90;;;25.84;48.14;101885.38;4934627;29;20486;-65
2023/06/15 08:32:00;;;;;;;2.00;1.90;;;25.30;99.90;;;26.15;46.32;101884.69;4937836;29;20075;-65
2023/06/15 08:34:30;;;;;;;2.10;2.00;;;25.60;99.90;;;26.25;44.60;101879.69;4937818;29;20063;-64
2023/06/15 08:36:58;;;;;;;6.07;4.50;;;25.70;99.90;;;25.27;44.58;101887.41;4938056;29;20611;-66
2023/06/15 08:39:27;;;;;;;3.17;2.97;;;25.00;99.90;;;25.09;45.72;101880.19;4937786;29;20122;-64
2023/06/15 08:41:56;;;;;;;3.03;2.83;;;24.60;99.90;;;25.19;45.28;101873.34;4937889;29;20130;-64
2023/06/15 08:44:25;;;;;;;1.92;1.83;;;24.60;99.90;;;24.95;45.10;101880.84;4937967;29;20481;-65
2023/06/15 08:46:56;;;;;;;2.40;2.30;;;24.40;99.90;;;24.86;45.93;101890.28;4937899;29;20091;-64
2023/06/15 08:49:26;;;;;;;2.13;2.03;;;24.30;99.90;;;24.77;47.09;101882.59;4934544;29;20082;-66
2023/06/15 08:51:58;;;;;;;3.00;2.80;;;24.20;99.90;;;24.87;43.18;101878.47;4936521;29;20154;-64
2023/06/15 08:54:30;;;;;;;3.30;3.10;;;24.30;99.90;;;24.59;44.27;101866.28;4937411;29;20391;-64
2023/06/15 08:56:59;;;;;;;2.63;2.50;;;24.20;99.90;;;24.73;43.89;101874.69;4937794;29;20115;-64
2023/06/15 08:59:27;;;;;;;2.35;2.25;;;24.10;99.90;;;25.32;44.01;101878.09;4937380;29;20067;-64
2023/06/15 09:01:58;;;;;;;5.43;3.20;;;24.60;99.90;;;25.31;42.62;101884.47;4937151;29;20090;-65
2023/06/15 09:04:27;;;;;;;;;;;24.80;99.90;;;24.72;43.71;101886.44;4934075;29;20103;-66
2023/06/15 09:06:58;;;;;;;2.78;2.58;;;24.30;99.90;;;24.87;43.25;101891.16;4937431;29;19923;-65
2023/06/15 09:09:27;;;;;;;3.10;2.83;;;24.30;99.90;;;25.03;43.58;101874.09;4944485;29;20066;-65
2023/06/15 09:11:55;;;;;;;3.03;2.83;;;24.40;99.90;;;25.14;43.63;101881.72;4937410;29;20112;-65
2023/06/15 09:14:24;;;;;;;2.58;2.47;;;24.50;99.90;;;25.31;42.76;101887.19;4937055;29;20056;-65
2023/06/15 09:16:52;;;;;;;2.85;2.70;;;24.70;99.90;;;25.31;42.23;101883.59;4937235;29;20437;-65
2023/06/15 09:19:20;;;;;;;2.10;2.00;;;24.70;99.90;;;25.63;40.28;101883.75;4937517;29;20150;-64
2023/06/15 09:21:52;;;;;;;2.67;2.58;;;25.00;99.90;;;26.01;41.95;101883.63;4937136;29;20040;-65
2023/06/15 09:24:24;;;;;;;2.20;2.10;;;25.50;99.90;;;26.29;41.79;101882.13;4936856;29;20044;-65
2023/06/15 09:26:53;;;;;;;2.47;2.38;;;25.70;99.90;;;26.14;40.46;101887.47;4934093;29;20043;-65
2023/06/15 09:29:21;;;;;;;2.65;2.45;;;25.70;99.90;;;25.73;39.55;101879.63;4937304;29;20059;-64
2023/06/15 09:31:49;;;;;;;2.50;2.40;;;25.30;99.90;;;25.40;40.74;101867.78;4936707;29;20044;-64
2023/06/15 09:34:18;;;;;;;3.67;3.38;;;25.00;99.90;;;25.27;40.59;101885.56;4937249;29;20051;-64
2023/06/15 09:36:48;;;;;;;2.60;2.50;;;24.80;99.90;;;25.46;40.90;101888.28;4937170;29;20083;-64
2023/06/15 09:39:23;;;;;;;1.92;1.83;;;24.90;99.90;;;25.86;39.70;101878.03;4936619;29;20040;-64
2023/06/15 09:41:56;;;;;;;2.10;2.00;;;25.20;99.90;;;26.21;40.31;101876.22;4933076;29;20047;-64
2023/06/15 09:44:26;;;;;;;1.70;1.70;;;25.60;99.90;;;26.67;39.40;101880.06;4936902;29;20397;-64
2023/06/15 09:46:58;;;;;;;2.10;2.00;;;26.10;99.90;;;26.34;40.14;101884.59;4936354;29;20079;-65
2023/06/15 09:49:28;;;;;;;2.72;2.55;;;25.90;99.90;;;26.71;41.20;101879.81;4936731;29;20047;-64
2023/06/15 09:51:58;;;;;;;6.00;2.55;;;26.10;99.90;;;26.77;39.99;101874.06;4936626;29;20481;-65
2023/06/15 09:54:28;;;;;;;2.30;2.20;;;26.30;99.90;;;26.94;41.44;101874.97;4936433;29;20386;-64
2023/06/15 09:56:57;;;;;;;3.10;2.88;;;26.40;99.90;;;27.33;39.82;101864.56;4933390;29;20043;-64
2023/06/15 09:59:26;;;;;;;2.63;2.42;;;26.80;99.90;;;27.04;38.25;101773.81;4936238;29;20036;-65
2023/06/15 10:01:57;;;;;;;2.35;2.15;;;27.20;99.90;;;27.05;38.81;101884.25;4936081;29;20791;-65
2023/06/15 10:04:27;;;;;;;;;;;26.80;99.90;;;26.69;40.37;101880.84;4936627;29;20104;-65
2023/06/15 10:07:00;;;;;;;1.70;1.70;;;26.40;99.90;;;26.29;40.39;101875.81;4936133;29;19927;-66
2023/06/15 10:09:37;;;;;;;2.60;2.40;;;25.90;99.90;;;26.07;38.49;101877.94;4936335;29;20056;-64
2023/06/15 10:12:10;;;;;;;2.10;2.00;;;25.70;98.50;;;25.84;40.07;101879.94;4933691;29;20048;-64
2023/06/15 10:14:53;;;;;;;1.95;1.85;;;25.30;99.90;;;25.97;42.27;101880.22;4936274;29;20051;-64
2023/06/15 10:17:30;;;;;;;1.92;1.88;;;25.30;99.90;;;26.52;41.85;101883.59;4932856;29;20047;-64
2023/06/15 10:20:09;;;;;;;1.80;1.80;;;25.80;99.90;;;26.44;40.73;101816.16;4936449;29;20040;-64
2023/06/15 10:22:46;;;;;;;1.70;1.70;;;26.30;99.90;;;27.16;40.93;101887.22;4931866;29;20064;-64
2023/06/15 10:25:18;;;;;;;1.70;1.70;;;26.60;99.90;;;27.52;40.00;101896.03;4933832;29;20056;-64